Impacts TAF Board
For situational awareness. Not to be used for flight planning purposes.
IDs:

KTUS - Tucson Intl Arpt, AZ, US

Issued at 1720 UTC 08 Aug 2020
Updated at 2141 UTC 08 Aug 2020
Potential Impact None Slight Moderate High
Time2053Z 08/22Z 08/23Z 09/00Z 09/01Z 09/02Z 09/03Z 09/04Z 09/05Z 09/06Z 09/07Z 09/08Z 09/09Z 09/10Z>>
Type OBS PRVL PRVL PRVL PRVL PRVL PRVL PRVL PRVL PRVL PRVL PRVL PRVL PRVL
VIS 10 >6 >6 >6 >6 >6 >6 >6 >6 >6 >6 >6 >6 >6
CIG -- -- -- -- -- -- -- -- -- -- -- -- -- --
Cover CLR SCT SCT SCT SCT SCT SCT SCT FEW FEW FEW FEW FEW FEW
FltCat VFR VFR VFR VFR VFR VFR VFR VFR VFR VFR VFR VFR VFR VFR
WX -- -- -- -- -- -- -- -- -- -- -- -- -- --
WDir 240 320 320 320 320 320 320 320 150 150 150 150 150 150
WSpd 8 8 8 8 8 8 8 8 7 7 7 7 7 7
WGst -- -- -- -- -- -- -- -- -- -- -- -- -- --
Raw TAF
KTUS 081720Z 0818/0918 24005KT P6SM FEW090
  FM082000 32008KT P6SM SCT110
  FM090500 15007KT P6SM FEW120


Raw METAR
KTUS 082053Z 24008KT 10SM CLR 39/08 A2997 RMK AO2 SLP090 T03940078 56021
KTUS 081953Z 10SM CLR 38/07 A3000 RMK AO2 SLP098 T03830072
KTUS 081853Z VRB06KT 10SM CLR 38/08 A3002 RMK AO2 SLP104 T03780078

METAR Board
Radar Display
Forecast Discussion
For situational awareness. Not to be used for flight planning purposes.